createdAt,value
2022-11-28T00:00:52.883Z,11.40
2022-11-28T00:03:54.744Z,9.82
2022-11-28T00:06:56.726Z,9.45
2022-11-28T00:09:58.619Z,10.20
2022-11-28T00:13:00.353Z,8.55
2022-11-28T00:16:04.433Z,13.65
2022-11-28T00:19:07.525Z,11.23
2022-11-28T00:22:09.210Z,10.60
2022-11-28T00:25:10.760Z,11.55
2022-11-28T00:28:12.425Z,10.30
2022-11-28T00:31:16.251Z,10.77
2022-11-28T00:34:17.897Z,12.95
2022-11-28T00:37:19.538Z,13.43
2022-11-28T00:40:21.292Z,13.63
2022-11-28T00:43:23.010Z,11.50
2022-11-28T00:46:25.146Z,11.07
2022-11-28T00:49:27.013Z,15.32
2022-11-28T00:52:28.779Z,10.40
2022-11-28T00:55:30.573Z,11.35
2022-11-28T00:58:33.786Z,11.73
2022-11-28T01:01:38.995Z,12.55
2022-11-28T01:04:41.030Z,12.75
2022-11-28T01:07:43.008Z,12.77
2022-11-28T01:10:46.194Z,12.13
2022-11-28T01:13:48.407Z,12.60
2022-11-28T01:16:50.343Z,10.27
2022-11-28T01:19:52.157Z,11.25
2022-11-28T01:22:53.727Z,10.73
2022-11-28T01:25:55.783Z,13.45
2022-11-28T01:28:58.830Z,12.88
2022-11-28T01:32:00.537Z,13.45
2022-11-28T01:35:02.251Z,8.38
2022-11-28T01:38:03.875Z,13.98
2022-11-28T01:41:06.334Z,16.58
2022-11-28T01:44:27.878Z,13.03
2022-11-28T01:47:31.175Z,13.27
2022-11-28T01:50:33.803Z,13.85
2022-11-28T01:53:41.265Z,10.30
2022-11-28T01:56:51.146Z,14.77
2022-11-28T02:00:09.729Z,15.63
2022-11-28T02:03:20.544Z,11.82
2022-11-28T02:06:24.228Z,12.80
2022-11-28T02:09:26.379Z,13.52
2022-11-28T02:12:30.735Z,11.52
2022-11-28T02:16:10.251Z,15.10
2022-11-28T02:19:49.444Z,12.80
2022-11-28T02:23:21.758Z,15.02
2022-11-28T02:26:54.747Z,12.43
2022-11-28T02:30:06.671Z,12.20
2022-11-28T02:33:16.546Z,15.15
2022-11-28T02:36:28.737Z,12.45
2022-11-28T02:39:43.768Z,14.68
2022-11-28T02:42:54.726Z,14.50
2022-11-28T02:46:13.811Z,12.20
2022-11-28T02:49:23.998Z,16.13
2022-11-28T02:52:49.602Z,12.68
2022-11-28T02:55:52.817Z,13.80
2022-11-28T02:58:55.007Z,13.68
2022-11-28T03:01:57.056Z,11.60
2022-11-28T03:05:05.168Z,15.15
2022-11-28T03:08:47.843Z,12.27
2022-11-28T03:12:07.916Z,15.30
2022-11-28T03:15:11.913Z,13.68
2022-11-28T03:18:26.252Z,13.57
2022-11-28T03:21:37.114Z,13.50
2022-11-28T03:24:55.000Z,12.77
2022-11-28T03:27:59.361Z,16.70
2022-11-28T03:31:05.410Z,13.05
2022-11-28T03:34:12.302Z,14.73
2022-11-28T03:37:24.107Z,14.88
2022-11-28T03:40:30.923Z,13.98
2022-11-28T03:43:38.762Z,15.80
2022-11-28T03:46:46.359Z,14.15
2022-11-28T03:49:53.115Z,12.63
2022-11-28T03:53:05.939Z,13.75
2022-11-28T03:56:14.252Z,10.35
2022-11-28T03:59:42.233Z,11.32
2022-11-28T04:02:44.055Z,11.48
2022-11-28T04:05:47.833Z,14.25
2022-11-28T04:08:58.585Z,11.65
2022-11-28T04:12:07.850Z,13.98
2022-11-28T04:15:15.752Z,11.30
2022-11-28T04:18:38.185Z,14.27
2022-11-28T04:21:59.242Z,15.25
2022-11-28T04:25:09.649Z,13.02
2022-11-28T04:28:15.513Z,12.35
2022-11-28T04:31:19.039Z,13.18
2022-11-28T04:34:22.344Z,13.90
2022-11-28T04:37:28.025Z,14.05
2022-11-28T04:40:33.178Z,14.48
2022-11-28T04:43:37.928Z,12.93
2022-11-28T04:46:47.494Z,15.20
2022-11-28T04:49:49.542Z,10.98
2022-11-28T04:52:56.761Z,10.07
2022-11-28T04:56:05.236Z,13.52
2022-11-28T04:59:08.263Z,14.52
2022-11-28T05:02:13.571Z,18.05
2022-11-28T05:05:21.921Z,13.60
2022-11-28T05:08:23.858Z,16.52
2022-11-28T05:11:26.298Z,15.68
2022-11-28T05:14:28.214Z,14.10
2022-11-28T05:17:29.792Z,11.57
2022-11-28T05:20:35.070Z,18.05
2022-11-28T05:23:38.640Z,17.48
2022-11-28T05:26:40.503Z,17.17
2022-11-28T05:29:49.392Z,15.63
2022-11-28T05:32:53.630Z,14.80
2022-11-28T05:35:55.874Z,15.25
2022-11-28T05:38:57.510Z,16.92
2022-11-28T05:41:59.491Z,13.02
2022-11-28T05:45:01.518Z,16.30
2022-11-28T05:48:03.259Z,16.65
2022-11-28T05:51:05.865Z,14.80
2022-11-28T05:54:10.377Z,17.38
2022-11-28T05:57:12.071Z,14.18
2022-11-28T06:00:17.462Z,14.43
2022-11-28T06:03:19.049Z,22.33
2022-11-28T06:06:22.059Z,15.70
2022-11-28T06:09:25.982Z,16.38
2022-11-28T06:12:28.047Z,12.80
2022-11-28T06:15:38.346Z,17.38
2022-11-28T06:18:41.176Z,15.60
2022-11-28T06:21:42.791Z,14.63
2022-11-28T06:24:44.397Z,16.58
2022-11-28T06:27:46.134Z,20.23
2022-11-28T06:30:47.682Z,16.75
2022-11-28T06:33:49.796Z,18.80
2022-11-28T06:36:51.458Z,13.70
2022-11-28T06:39:53.154Z,15.13
2022-11-28T06:42:54.882Z,19.88
2022-11-28T06:45:56.883Z,21.95
2022-11-28T06:48:58.827Z,19.55
2022-11-28T06:52:00.498Z,17.55
2022-11-28T06:55:02.342Z,17.23
2022-11-28T06:58:04.164Z,16.70
2022-11-28T07:01:18.974Z,19.50
2022-11-28T07:04:20.744Z,17.10
2022-11-28T07:07:22.481Z,20.17
2022-11-28T07:10:27.945Z,21.42
2022-11-28T07:13:29.531Z,19.45
2022-11-28T07:16:33.304Z,17.88
2022-11-28T07:19:35.228Z,17.73
2022-11-28T07:22:36.840Z,23.13
2022-11-28T07:25:38.670Z,15.38
2022-11-28T07:28:40.967Z,16.75
2022-11-28T07:31:42.918Z,17.88
2022-11-28T07:34:49.881Z,17.27
2022-11-28T07:37:51.915Z,18.23
2022-11-28T07:40:53.822Z,20.30
2022-11-28T07:44:00.461Z,18.70
2022-11-28T07:47:02.128Z,16.63
2022-11-28T07:50:04.338Z,18.65
2022-11-28T07:53:07.406Z,24.80
2022-11-28T07:56:16.156Z,20.70
2022-11-28T07:59:18.259Z,47.85
2022-11-28T08:02:20.146Z,18.73
2022-11-28T08:05:21.998Z,18.45
2022-11-28T08:08:23.945Z,21.75
2022-11-28T08:11:28.308Z,22.67
2022-11-28T08:14:30.172Z,19.70
2022-11-28T08:17:34.363Z,20.92
2022-11-28T08:20:36.013Z,18.63
2022-11-28T08:23:39.440Z,24.95
2022-11-28T08:29:43.262Z,20.50
2022-11-28T08:32:45.111Z,19.70
2022-11-28T08:35:46.669Z,40.95
2022-11-28T08:39:03.466Z,20.40
2022-11-28T08:42:10.915Z,19.25
2022-11-28T08:45:12.758Z,17.60
2022-11-28T08:48:14.441Z,21.02
2022-11-28T08:51:18.870Z,22.65
2022-11-28T08:54:21.072Z,23.67
2022-11-28T08:57:22.726Z,21.98
2022-11-28T09:00:24.409Z,21.90
2022-11-28T09:03:26.326Z,25.40
2022-11-28T09:06:28.086Z,19.50
2022-11-28T09:09:32.768Z,24.70
2022-11-28T09:12:35.040Z,23.13
2022-11-28T09:15:43.354Z,22.02
2022-11-28T09:18:45.229Z,21.00
2022-11-28T09:21:46.950Z,25.48
2022-11-28T09:24:48.531Z,21.35
2022-11-28T09:27:50.321Z,24.15
2022-11-28T09:31:00.051Z,22.67
2022-11-28T09:34:03.585Z,22.63
2022-11-28T09:40:15.175Z,20.30
2022-11-28T09:43:20.638Z,20.52
2022-11-28T09:46:31.756Z,20.38
2022-11-28T09:49:48.117Z,22.13
2022-11-28T09:53:05.733Z,17.67
2022-11-28T09:56:19.774Z,21.40
2022-11-28T09:59:29.905Z,18.92
2022-11-28T10:02:43.864Z,17.63
2022-11-28T10:05:45.440Z,22.05
2022-11-28T10:09:24.707Z,24.40
2022-11-28T10:12:38.420Z,19.30
2022-11-28T10:19:20.311Z,21.50
2022-11-28T10:22:37.224Z,19.13
2022-11-28T10:26:02.555Z,29.65
2022-11-28T10:29:39.726Z,16.20
2022-11-28T10:32:45.223Z,18.27
2022-11-28T10:35:58.767Z,17.48
2022-11-28T10:39:11.172Z,13.82
2022-11-28T10:42:22.378Z,15.40
2022-11-28T10:45:36.167Z,12.38
2022-11-28T10:48:56.015Z,14.73
2022-11-28T10:52:12.436Z,13.85
2022-11-28T10:55:39.010Z,14.77
2022-11-28T10:59:05.087Z,14.50
2022-11-28T11:02:22.306Z,15.68
2022-11-28T11:05:29.623Z,15.70
2022-11-28T11:08:36.762Z,14.43
2022-11-28T11:11:47.575Z,14.65
2022-11-28T11:14:49.215Z,17.25
2022-11-28T11:17:51.851Z,15.68
2022-11-28T11:21:07.455Z,18.10
2022-11-28T11:24:27.202Z,20.10
2022-11-28T11:27:28.819Z,16.52
2022-11-28T11:30:40.126Z,16.88
2022-11-28T11:33:42.805Z,16.48
2022-11-28T11:36:45.151Z,20.10
2022-11-28T11:39:51.415Z,17.90
2022-11-28T11:42:56.553Z,15.40
2022-11-28T11:46:12.688Z,17.73
2022-11-28T11:49:38.389Z,22.75
2022-11-28T11:52:40.080Z,21.35
2022-11-28T11:55:55.901Z,40.33
2022-11-28T11:59:01.885Z,20.17
2022-11-28T12:02:19.192Z,61.50
2022-11-28T12:06:06.545Z,144.75
2022-11-28T12:09:46.639Z,21.17
2022-11-28T12:12:48.708Z,129.32
2022-11-28T12:16:34.779Z,36.50
2022-11-28T12:19:52.181Z,35.53
2022-11-28T12:23:18.388Z,24.13
2022-11-28T12:26:42.468Z,97.60
2022-11-28T12:30:01.558Z,33.78
2022-11-28T12:33:39.265Z,21.13
2022-11-28T12:37:33.075Z,16.02
2022-11-28T12:41:14.583Z,17.58
2022-11-28T12:44:22.304Z,22.88
2022-11-28T12:47:54.047Z,21.38
2022-11-28T12:51:08.014Z,19.27
2022-11-28T12:54:36.005Z,20.42
2022-11-28T12:57:49.505Z,21.50
2022-11-28T13:01:15.265Z,23.77
2022-11-28T13:04:31.419Z,27.10
2022-11-28T13:08:02.750Z,25.02
2022-11-28T13:11:31.879Z,39.53
2022-11-28T13:14:36.585Z,67.80
2022-11-28T13:17:58.279Z,31.48
2022-11-28T13:21:25.177Z,20.10
2022-11-28T13:24:31.898Z,20.23
2022-11-28T13:27:49.096Z,23.50
2022-11-28T13:30:56.207Z,18.98
2022-11-28T13:33:58.866Z,33.47
2022-11-28T13:40:41.206Z,26.85
2022-11-28T13:44:03.906Z,31.48
2022-11-28T13:47:27.940Z,28.52
2022-11-28T13:50:39.302Z,28.48
2022-11-28T13:53:42.561Z,21.80
2022-11-28T13:57:13.596Z,29.27
2022-11-28T14:00:18.466Z,20.30
2022-11-28T14:03:21.182Z,13.32
2022-11-28T14:06:26.203Z,18.83
2022-11-28T14:09:47.685Z,18.48
2022-11-28T14:13:28.150Z,27.42
2022-11-28T14:16:52.169Z,23.05
2022-11-28T14:20:04.652Z,34.90
2022-11-28T14:23:15.639Z,35.92
2022-11-28T14:26:39.028Z,43.00
2022-11-28T14:29:48.244Z,48.25
2022-11-28T14:32:57.232Z,60.60
2022-11-28T14:36:06.113Z,56.05
2022-11-28T14:39:08.080Z,93.68
2022-11-28T14:42:10.108Z,48.63
2022-11-28T14:45:43.136Z,45.47
2022-11-28T14:49:00.442Z,30.92
2022-11-28T14:52:37.803Z,23.05
2022-11-28T14:55:39.977Z,22.38
2022-11-28T14:58:49.260Z,21.13
2022-11-28T15:02:06.080Z,24.70
2022-11-28T15:05:22.219Z,23.23
2022-11-28T15:08:45.553Z,21.85
2022-11-28T15:11:58.721Z,24.23
2022-11-28T15:15:01.964Z,25.02
2022-11-28T15:18:04.889Z,26.48
2022-11-28T15:21:13.661Z,25.63
2022-11-28T15:24:23.974Z,24.88
2022-11-28T15:27:27.855Z,23.95
2022-11-28T15:33:32.527Z,21.88
2022-11-28T15:36:34.396Z,20.58
2022-11-28T15:39:41.093Z,32.00
2022-11-28T15:42:45.072Z,22.70
2022-11-28T15:45:52.749Z,23.88
2022-11-28T15:48:54.607Z,22.08
2022-11-28T15:52:01.788Z,30.20
2022-11-28T15:55:13.749Z,26.33
2022-11-28T15:58:25.418Z,24.65
2022-11-28T16:01:28.241Z,83.43
2022-11-28T16:04:31.682Z,57.35
2022-11-28T16:07:37.837Z,38.83
2022-11-28T16:10:44.337Z,33.13
2022-11-28T16:13:47.304Z,29.23
2022-11-28T16:16:49.296Z,22.33
2022-11-28T16:19:53.740Z,28.58
2022-11-28T16:23:00.152Z,29.92
2022-11-28T16:26:25.715Z,30.50
2022-11-28T16:29:36.656Z,34.88
2022-11-28T16:32:40.455Z,33.30
2022-11-28T16:35:42.388Z,44.95
2022-11-28T16:38:45.214Z,33.17
2022-11-28T16:41:56.676Z,29.90
2022-11-28T16:45:15.471Z,28.77
2022-11-28T16:48:19.400Z,29.52
2022-11-28T16:51:20.905Z,31.85
2022-11-28T16:54:33.696Z,35.88
2022-11-28T16:57:46.685Z,30.33
2022-11-28T17:01:00.995Z,28.47
2022-11-28T17:04:03.920Z,47.55
2022-11-28T17:07:10.093Z,198.30
2022-11-28T17:10:14.980Z,115.63
2022-11-28T17:13:17.448Z,43.55
2022-11-28T17:16:24.548Z,71.90
2022-11-28T17:19:28.874Z,67.05
2022-11-28T17:22:43.135Z,38.97
2022-11-28T17:25:44.849Z,45.42
2022-11-28T17:28:47.108Z,65.22
2022-11-28T17:31:49.684Z,51.13
2022-11-28T17:34:53.862Z,41.57
2022-11-28T17:37:55.534Z,38.05
2022-11-28T17:40:57.233Z,47.97
2022-11-28T17:43:58.781Z,38.03
2022-11-28T17:47:01.841Z,45.90
2022-11-28T17:50:03.786Z,35.70
2022-11-28T17:53:07.815Z,42.67
2022-11-28T17:56:13.087Z,43.25
2022-11-28T17:59:16.566Z,43.22
2022-11-28T18:05:19.924Z,28.55
2022-11-28T18:08:22.585Z,35.35
2022-11-28T18:11:24.760Z,39.33
2022-11-28T18:14:26.350Z,43.85
2022-11-28T18:17:28.199Z,45.13
2022-11-28T18:20:31.772Z,40.17
2022-11-28T18:23:33.404Z,47.97
2022-11-28T18:26:36.016Z,41.95
2022-11-28T18:29:37.759Z,56.93
2022-11-28T18:32:39.607Z,43.92
2022-11-28T18:35:41.780Z,48.92
2022-11-28T18:38:46.626Z,36.20
2022-11-28T18:41:48.330Z,37.17
2022-11-28T18:44:50.367Z,86.28
2022-11-28T18:47:55.886Z,124.15
2022-11-28T18:51:00.429Z,82.97
2022-11-28T18:54:05.293Z,58.00
2022-11-28T18:57:09.533Z,40.90
2022-11-28T19:00:13.740Z,35.15
2022-11-28T19:03:18.579Z,33.47
2022-11-28T19:06:22.020Z,35.45
2022-11-28T19:09:23.794Z,33.00
2022-11-28T19:15:29.504Z,33.42
2022-11-28T19:18:31.160Z,50.13
2022-11-28T19:21:35.375Z,39.90
2022-11-28T19:24:38.307Z,44.38
2022-11-28T19:27:40.156Z,43.60
2022-11-28T19:30:42.034Z,40.78
2022-11-28T19:33:44.084Z,42.33
2022-11-28T19:36:48.443Z,40.63
2022-11-28T19:39:50.177Z,38.65
2022-11-28T19:42:55.694Z,43.05
2022-11-28T19:45:58.141Z,38.58
2022-11-28T19:49:00.032Z,48.60
2022-11-28T19:52:02.950Z,54.30
2022-11-28T19:55:05.206Z,39.20
2022-11-28T19:58:07.258Z,41.95
2022-11-28T20:01:15.277Z,37.95
2022-11-28T20:04:17.361Z,39.08
2022-11-28T20:07:19.540Z,40.20
2022-11-28T20:10:21.431Z,31.90
2022-11-28T20:13:23.727Z,35.65
2022-11-28T20:16:26.344Z,34.60
2022-11-28T20:19:28.189Z,34.43
2022-11-28T20:22:30.843Z,34.60
2022-11-28T20:25:33.277Z,35.55
2022-11-28T20:28:38.586Z,35.77
2022-11-28T20:31:45.250Z,42.85
2022-11-28T20:34:47.067Z,38.58
2022-11-28T20:37:48.987Z,40.40
2022-11-28T20:40:50.772Z,33.80
2022-11-28T20:43:53.136Z,34.35
2022-11-28T20:46:54.926Z,29.47
2022-11-28T20:49:56.832Z,26.35
2022-11-28T20:52:58.551Z,30.65
2022-11-28T20:56:06.341Z,32.55
2022-11-28T20:59:08.363Z,28.10
2022-11-28T21:02:11.366Z,30.08
2022-11-28T21:05:13.058Z,31.20
2022-11-28T21:08:14.916Z,32.83
2022-11-28T21:11:43.369Z,28.20
2022-11-28T21:14:40.883Z,33.22
2022-11-28T21:17:42.589Z,32.70
2022-11-28T21:20:45.830Z,35.10
2022-11-28T21:23:47.951Z,38.13
2022-11-28T21:26:53.542Z,39.28
2022-11-28T21:29:56.368Z,34.05
2022-11-28T21:32:58.364Z,35.95
2022-11-28T21:36:02.685Z,38.38
2022-11-28T21:39:04.509Z,37.65
2022-11-28T21:42:06.548Z,32.08
2022-11-28T21:45:09.080Z,42.20
2022-11-28T21:48:10.789Z,34.85
2022-11-28T21:51:18.342Z,30.23
2022-11-28T21:54:20.546Z,36.00
2022-11-28T21:57:22.571Z,40.03
2022-11-28T22:00:46.061Z,38.38
2022-11-28T22:03:46.150Z,36.90
2022-11-28T22:06:47.859Z,33.85
2022-11-28T22:09:49.973Z,29.00
2022-11-28T22:12:53.518Z,49.15
2022-11-28T22:15:55.325Z,39.65
2022-11-28T22:18:59.581Z,37.83
2022-11-28T22:22:01.316Z,29.55
2022-11-28T22:25:03.426Z,35.55
2022-11-28T22:28:05.619Z,36.42
2022-11-28T22:31:09.197Z,30.85
2022-11-28T22:34:11.156Z,34.40
2022-11-28T22:37:12.953Z,32.97
2022-11-28T22:40:15.256Z,32.45
2022-11-28T22:43:17.045Z,27.40
2022-11-28T22:46:21.189Z,28.13
2022-11-28T22:49:23.407Z,26.27
2022-11-28T22:52:25.279Z,32.58
2022-11-28T22:55:27.147Z,29.80
2022-11-28T22:58:28.766Z,31.58
2022-11-28T23:01:32.027Z,32.05
2022-11-28T23:04:35.443Z,35.60
2022-11-28T23:07:38.074Z,30.42
2022-11-28T23:10:40.947Z,29.08
2022-11-28T23:13:44.036Z,33.40
2022-11-28T23:16:48.053Z,25.02
2022-11-28T23:19:50.215Z,27.75
2022-11-28T23:22:51.907Z,32.42
2022-11-28T23:25:53.627Z,28.58
2022-11-28T23:28:56.192Z,27.00
2022-11-28T23:31:57.782Z,31.87
2022-11-28T23:35:01.199Z,26.52
2022-11-28T23:38:02.902Z,34.40
2022-11-28T23:41:04.764Z,32.78
2022-11-28T23:44:06.510Z,30.13
2022-11-28T23:47:08.468Z,34.08
2022-11-28T23:50:10.416Z,35.15
2022-11-28T23:53:12.149Z,33.20
2022-11-28T23:56:16.663Z,37.33
2022-11-28T23:59:18.317Z,29.90
